createdAt,value
2016-11-25T00:00:04.022Z,0
2016-11-25T00:05:04.503Z,0
2016-11-25T00:10:04.207Z,0
2016-11-25T00:15:04.575Z,0
2016-11-25T00:20:03.996Z,0
2016-11-25T00:25:04.704Z,0
2016-11-25T00:30:04.401Z,0
2016-11-25T00:35:03.919Z,0
2016-11-25T00:40:04.008Z,0
2016-11-25T00:45:04.160Z,0
2016-11-25T00:50:04.104Z,0
2016-11-25T00:55:03.972Z,0
2016-11-25T01:00:04.003Z,0
2016-11-25T01:05:04.222Z,0
2016-11-25T01:10:04.273Z,0
2016-11-25T01:15:04.575Z,0
2016-11-25T01:20:04.396Z,0
2016-11-25T01:25:04.768Z,0
2016-11-25T01:30:03.790Z,0
2016-11-25T01:35:04.764Z,0
2016-11-25T01:40:04.692Z,0
2016-11-25T01:45:04.614Z,0
2016-11-25T01:50:04.697Z,0
2016-11-25T01:55:04.425Z,0
2016-11-25T02:00:04.104Z,0
2016-11-25T02:05:04.281Z,0
2016-11-25T02:10:04.018Z,0
2016-11-25T02:15:04.083Z,0
2016-11-25T02:20:04.778Z,0
2016-11-25T02:25:04.464Z,0
2016-11-25T02:30:04.612Z,0
2016-11-25T02:35:04.717Z,0
2016-11-25T02:40:04.574Z,0
2016-11-25T02:45:03.751Z,0
2016-11-25T02:50:05.123Z,0
2016-11-25T02:55:04.938Z,0
2016-11-25T03:00:04.772Z,0
2016-11-25T03:05:04.192Z,0
2016-11-25T03:10:04.658Z,0
2016-11-25T03:15:04.598Z,0
2016-11-25T03:20:04.838Z,0
2016-11-25T03:25:04.070Z,0
2016-11-25T03:30:03.790Z,0
2016-11-25T03:35:03.950Z,0
2016-11-25T03:40:04.240Z,0
2016-11-25T03:45:04.716Z,0
2016-11-25T03:50:03.925Z,0
2016-11-25T03:55:04.421Z,0
2016-11-25T04:00:04.830Z,0
2016-11-25T04:05:04.544Z,0
2016-11-25T04:10:03.933Z,0
2016-11-25T04:15:04.010Z,0
2016-11-25T04:20:04.896Z,0
2016-11-25T04:25:03.799Z,0
2016-11-25T04:30:04.344Z,0
2016-11-25T04:35:04.383Z,0
2016-11-25T04:40:04.223Z,0
2016-11-25T04:45:04.735Z,0
2016-11-25T04:50:04.289Z,0
2016-11-25T04:55:04.479Z,0
2016-11-25T05:00:04.152Z,0
2016-11-25T05:05:04.275Z,0
2016-11-25T05:10:04.170Z,0
2016-11-25T05:15:04.281Z,0
2016-11-25T05:20:04.880Z,0
2016-11-25T05:25:04.313Z,0
2016-11-25T05:30:03.922Z,0
2016-11-25T05:35:04.129Z,0
2016-11-25T05:40:04.102Z,0
2016-11-25T05:45:04.249Z,0
2016-11-25T05:50:04.905Z,0
2016-11-25T06:00:04.224Z,0
2016-11-25T06:05:04.218Z,0
2016-11-25T06:10:04.094Z,0
2016-11-25T06:15:04.523Z,0
2016-11-25T06:20:04.150Z,0
2016-11-25T06:25:04.721Z,0
2016-11-25T06:30:03.899Z,0
2016-11-25T06:35:05.230Z,1
2016-11-25T06:40:04.218Z,4
2016-11-25T06:45:04.599Z,10
2016-11-25T06:50:05.318Z,24
2016-11-25T06:55:04.614Z,42
2016-11-25T07:00:04.246Z,66
2016-11-25T07:05:04.164Z,152
2016-11-25T07:10:04.632Z,277
2016-11-25T07:15:04.128Z,357
2016-11-25T07:20:04.836Z,465
2016-11-25T07:25:04.993Z,595
2016-11-25T07:30:04.793Z,766
2016-11-25T07:35:03.963Z,897
2016-11-25T07:40:03.961Z,1000
2016-11-25T07:45:04.008Z,1000
2016-11-25T07:50:04.200Z,1000
2016-11-25T07:55:04.995Z,1000
2016-11-25T08:00:04.745Z,1000
2016-11-25T08:05:04.661Z,1000
2016-11-25T08:10:03.984Z,1000
2016-11-25T08:15:03.930Z,1000
2016-11-25T08:20:04.199Z,1000
2016-11-25T08:25:04.529Z,1000
2016-11-25T08:30:04.396Z,2000
2016-11-25T08:35:04.230Z,2000
2016-11-25T08:40:04.108Z,2000
2016-11-25T08:45:03.938Z,3000
2016-11-25T08:50:04.002Z,3000
2016-11-25T08:55:04.165Z,3000
2016-11-25T09:00:04.743Z,3000
2016-11-25T09:05:03.983Z,3000
2016-11-25T09:10:04.414Z,3000
2016-11-25T09:15:04.477Z,3000
2016-11-25T09:20:04.851Z,3000
2016-11-25T09:25:04.410Z,3000
2016-11-25T09:30:03.923Z,4000
2016-11-25T09:35:04.251Z,4000
2016-11-25T09:40:04.757Z,4000
2016-11-25T09:45:04.494Z,4000
2016-11-25T09:50:04.668Z,4000
2016-11-25T09:55:04.729Z,4000
2016-11-25T10:00:04.578Z,4000
2016-11-25T10:05:04.582Z,4000
2016-11-25T10:10:04.934Z,4000
2016-11-25T10:15:04.154Z,4000
2016-11-25T10:20:04.137Z,4000
2016-11-25T10:25:04.683Z,4000
2016-11-25T10:30:04.469Z,5000
2016-11-25T10:35:04.664Z,4000
2016-11-25T10:40:04.750Z,4000
2016-11-25T10:45:04.874Z,4000
2016-11-25T10:50:04.360Z,4000
2016-11-25T10:55:04.992Z,3000
2016-11-25T11:00:04.532Z,3000
2016-11-25T11:05:04.771Z,3000
2016-11-25T11:10:04.062Z,3000
2016-11-25T11:15:03.905Z,3000
2016-11-25T11:20:04.274Z,3000
2016-11-25T11:25:04.059Z,4000
2016-11-25T11:30:04.022Z,4000
2016-11-25T11:35:04.237Z,3000
2016-11-25T11:40:04.937Z,4000
2016-11-25T11:45:04.779Z,3000
2016-11-25T11:50:04.567Z,3000
2016-11-25T11:55:05.000Z,3000
2016-11-25T12:00:04.217Z,3000
2016-11-25T12:05:04.163Z,3000
2016-11-25T12:10:04.778Z,3000
2016-11-25T12:15:04.633Z,3000
2016-11-25T12:20:03.870Z,3000
2016-11-25T12:25:04.177Z,3000
2016-11-25T12:30:04.175Z,3000
2016-11-25T12:35:03.950Z,3000
2016-11-25T12:40:04.043Z,3000
2016-11-25T12:45:04.361Z,3000
2016-11-25T12:50:04.727Z,3000
2016-11-25T12:55:03.990Z,3000
2016-11-25T13:00:04.413Z,3000
2016-11-25T13:05:04.634Z,3000
2016-11-25T13:10:04.674Z,3000
2016-11-25T13:15:04.018Z,3000
2016-11-25T13:20:04.423Z,3000
2016-11-25T13:25:04.730Z,3000
2016-11-25T13:30:04.830Z,3000
2016-11-25T13:35:04.413Z,3000
2016-11-25T13:40:03.920Z,3000
2016-11-25T13:45:04.209Z,3000
2016-11-25T13:50:04.312Z,3000
2016-11-25T13:55:04.783Z,3000
2016-11-25T14:00:04.782Z,3000
2016-11-25T14:05:04.852Z,3000
2016-11-25T14:10:04.356Z,3000
2016-11-25T14:15:04.311Z,3000
2016-11-25T14:20:04.845Z,3000
2016-11-25T14:25:03.915Z,3000
2016-11-25T14:30:03.997Z,2000
2016-11-25T14:35:04.186Z,2000
2016-11-25T14:40:04.341Z,2000
2016-11-25T14:45:04.658Z,2000
2016-11-25T14:50:04.747Z,2000
2016-11-25T14:55:04.778Z,2000
2016-11-25T15:00:04.620Z,1000
2016-11-25T15:05:03.948Z,1000
2016-11-25T15:10:04.108Z,1000
2016-11-25T15:15:04.520Z,1000
2016-11-25T15:20:04.774Z,781
2016-11-25T15:25:03.985Z,649
2016-11-25T15:30:04.732Z,388
2016-11-25T15:35:05.403Z,315
2016-11-25T15:40:04.103Z,264
2016-11-25T15:45:04.382Z,158
2016-11-25T15:50:04.258Z,74
2016-11-25T15:55:04.500Z,53
2016-11-25T16:00:04.869Z,18
2016-11-25T16:05:04.150Z,8
2016-11-25T16:10:04.429Z,3
2016-11-25T16:15:04.677Z,1
2016-11-25T16:20:04.329Z,0
2016-11-25T16:25:04.540Z,0
2016-11-25T16:30:04.684Z,0
2016-11-25T16:35:04.616Z,0
2016-11-25T16:40:04.722Z,0
2016-11-25T16:45:04.320Z,0
2016-11-25T16:50:04.299Z,0
2016-11-25T16:55:04.263Z,0
2016-11-25T17:00:05.078Z,0
2016-11-25T17:05:04.264Z,0
2016-11-25T17:10:04.134Z,0
2016-11-25T17:15:04.390Z,0
2016-11-25T17:20:03.901Z,0
2016-11-25T17:25:04.103Z,0
2016-11-25T17:30:04.768Z,0
2016-11-25T17:35:04.770Z,0
2016-11-25T17:40:04.581Z,0
2016-11-25T17:45:03.818Z,0
2016-11-25T17:50:04.265Z,0
2016-11-25T17:55:05.305Z,0
2016-11-25T18:00:05.017Z,0
2016-11-25T18:05:04.422Z,0
2016-11-25T18:10:04.334Z,0
2016-11-25T18:15:04.878Z,0
2016-11-25T18:20:04.925Z,0
2016-11-25T18:25:04.985Z,0
2016-11-25T18:30:04.625Z,0
2016-11-25T18:35:04.530Z,0
2016-11-25T18:40:04.497Z,0
2016-11-25T18:45:04.802Z,0
2016-11-25T18:50:03.739Z,0
2016-11-25T18:55:04.993Z,0
2016-11-25T19:00:04.013Z,0
2016-11-25T19:05:04.277Z,0
2016-11-25T19:10:03.861Z,0
2016-11-25T19:15:04.182Z,0
2016-11-25T19:20:04.234Z,0
2016-11-25T19:25:04.792Z,0
2016-11-25T19:30:04.866Z,0
2016-11-25T19:35:04.086Z,0
2016-11-25T19:40:04.697Z,0
2016-11-25T19:45:04.488Z,0
2016-11-25T19:50:04.398Z,0
2016-11-25T19:55:04.529Z,0
2016-11-25T20:00:05.064Z,0
2016-11-25T20:05:05.157Z,0
2016-11-25T20:10:05.000Z,0
2016-11-25T20:15:05.061Z,0
2016-11-25T20:20:04.740Z,0
2016-11-25T20:25:04.893Z,0
2016-11-25T20:30:05.302Z,0
2016-11-25T20:35:05.133Z,0
2016-11-25T20:40:04.650Z,0
2016-11-25T20:45:05.182Z,0
2016-11-25T20:50:04.908Z,0
2016-11-25T20:55:05.216Z,0
2016-11-25T21:00:05.126Z,0
2016-11-25T21:05:05.109Z,0
2016-11-25T21:10:04.662Z,0
2016-11-25T21:15:04.678Z,0
2016-11-25T21:20:04.741Z,0
2016-11-25T21:25:04.688Z,0
2016-11-25T21:30:04.224Z,0
2016-11-25T21:35:04.250Z,0
2016-11-25T21:40:04.314Z,0
2016-11-25T21:45:04.081Z,0
2016-11-25T21:50:04.423Z,0
2016-11-25T21:55:04.806Z,0
2016-11-25T22:00:03.904Z,0
2016-11-25T22:05:04.866Z,0
2016-11-25T22:10:03.988Z,0
2016-11-25T22:15:03.959Z,0
2016-11-25T22:20:04.925Z,0
2016-11-25T22:25:04.460Z,0
2016-11-25T22:30:04.280Z,0
2016-11-25T22:35:04.215Z,0
2016-11-25T22:40:04.326Z,0
2016-11-25T22:45:03.849Z,0
2016-11-25T22:50:04.149Z,0
2016-11-25T22:55:03.957Z,0
2016-11-25T23:00:04.363Z,0
2016-11-25T23:05:04.235Z,0
2016-11-25T23:10:04.747Z,0
2016-11-25T23:15:04.140Z,0
2016-11-25T23:20:04.407Z,0
2016-11-25T23:25:04.803Z,0
2016-11-25T23:30:04.791Z,0
2016-11-25T23:35:04.584Z,0
2016-11-25T23:40:04.870Z,0
2016-11-25T23:45:04.718Z,0
2016-11-25T23:50:04.378Z,0
2016-11-25T23:55:04.595Z,0
